sensor_id;sensor_type;location;lat;lon;timestamp;P1;durP1;ratioP1;P2;durP2;ratioP2
12112;SDS011;6120;52.250;8.478;2023-09-19T00:00:21;10.50;;;3.55;;
12112;SDS011;6120;52.250;8.478;2023-09-19T00:02:54;10.52;;;4.85;;
12112;SDS011;6120;52.250;8.478;2023-09-19T00:05:26;10.07;;;3.78;;
12112;SDS011;6120;52.250;8.478;2023-09-19T00:07:55;9.88;;;3.33;;
12112;SDS011;6120;52.250;8.478;2023-09-19T00:10:26;10.65;;;3.88;;
12112;SDS011;6120;52.250;8.478;2023-09-19T00:12:57;9.38;;;3.10;;
12112;SDS011;6120;52.250;8.478;2023-09-19T00:15:36;10.07;;;2.90;;
12112;SDS011;6120;52.250;8.478;2023-09-19T00:18:04;7.22;;;3.10;;
12112;SDS011;6120;52.250;8.478;2023-09-19T00:20:35;7.43;;;2.45;;
12112;SDS011;6120;52.250;8.478;2023-09-19T00:23:03;7.33;;;2.67;;
12112;SDS011;6120;52.250;8.478;2023-09-19T00:25:30;7.55;;;2.30;;
12112;SDS011;6120;52.250;8.478;2023-09-19T00:27:58;8.93;;;2.42;;
12112;SDS011;6120;52.250;8.478;2023-09-19T00:30:25;6.25;;;2.67;;
12112;SDS011;6120;52.250;8.478;2023-09-19T00:32:52;15.77;;;2.58;;
12112;SDS011;6120;52.250;8.478;2023-09-19T00:35:19;10.77;;;2.85;;
12112;SDS011;6120;52.250;8.478;2023-09-19T00:37:46;9.95;;;2.95;;
12112;SDS011;6120;52.250;8.478;2023-09-19T00:40:12;6.68;;;2.13;;
12112;SDS011;6120;52.250;8.478;2023-09-19T00:42:41;6.97;;;2.85;;
12112;SDS011;6120;52.250;8.478;2023-09-19T00:45:09;10.80;;;2.40;;
12112;SDS011;6120;52.250;8.478;2023-09-19T00:47:41;8.50;;;2.30;;
12112;SDS011;6120;52.250;8.478;2023-09-19T00:50:19;5.35;;;2.33;;
12112;SDS011;6120;52.250;8.478;2023-09-19T00:52:48;8.13;;;2.83;;
12112;SDS011;6120;52.250;8.478;2023-09-19T00:55:17;12.15;;;3.55;;
12112;SDS011;6120;52.250;8.478;2023-09-19T00:57:46;15.15;;;2.58;;
12112;SDS011;6120;52.250;8.478;2023-09-19T01:00:14;5.32;;;2.33;;
12112;SDS011;6120;52.250;8.478;2023-09-19T01:02:42;9.38;;;2.80;;
12112;SDS011;6120;52.250;8.478;2023-09-19T01:05:10;8.63;;;2.80;;
12112;SDS011;6120;52.250;8.478;2023-09-19T01:07:37;10.50;;;3.15;;
12112;SDS011;6120;52.250;8.478;2023-09-19T01:10:11;8.85;;;2.75;;
12112;SDS011;6120;52.250;8.478;2023-09-19T01:15:11;9.02;;;2.25;;
12112;SDS011;6120;52.250;8.478;2023-09-19T01:17:46;8.38;;;2.50;;
12112;SDS011;6120;52.250;8.478;2023-09-19T01:20:19;9.65;;;2.10;;
12112;SDS011;6120;52.250;8.478;2023-09-19T01:28:15;10.15;;;2.80;;
12112;SDS011;6120;52.250;8.478;2023-09-19T01:30:51;12.02;;;2.22;;
12112;SDS011;6120;52.250;8.478;2023-09-19T01:33:24;6.65;;;1.88;;
12112;SDS011;6120;52.250;8.478;2023-09-19T01:35:52;9.70;;;2.13;;
12112;SDS011;6120;52.250;8.478;2023-09-19T01:38:22;8.77;;;2.50;;
12112;SDS011;6120;52.250;8.478;2023-09-19T01:40:57;13.53;;;2.27;;
12112;SDS011;6120;52.250;8.478;2023-09-19T01:43:32;10.75;;;2.50;;
12112;SDS011;6120;52.250;8.478;2023-09-19T01:46:37;10.77;;;2.33;;
12112;SDS011;6120;52.250;8.478;2023-09-19T01:51:33;14.63;;;2.88;;
12112;SDS011;6120;52.250;8.478;2023-09-19T01:54:07;6.75;;;2.00;;
12112;SDS011;6120;52.250;8.478;2023-09-19T01:56:36;9.68;;;2.47;;
12112;SDS011;6120;52.250;8.478;2023-09-19T01:59:16;11.15;;;2.22;;
12112;SDS011;6120;52.250;8.478;2023-09-19T02:01:44;11.75;;;2.63;;
12112;SDS011;6120;52.250;8.478;2023-09-19T02:04:12;9.02;;;2.70;;
12112;SDS011;6120;52.250;8.478;2023-09-19T02:06:41;10.25;;;3.10;;
12112;SDS011;6120;52.250;8.478;2023-09-19T02:09:08;10.63;;;2.05;;
12112;SDS011;6120;52.250;8.478;2023-09-19T02:11:35;7.80;;;2.35;;
12112;SDS011;6120;52.250;8.478;2023-09-19T02:14:03;11.52;;;2.35;;
12112;SDS011;6120;52.250;8.478;2023-09-19T02:16:30;11.73;;;2.67;;
12112;SDS011;6120;52.250;8.478;2023-09-19T02:18:57;10.32;;;2.42;;
12112;SDS011;6120;52.250;8.478;2023-09-19T02:21:26;9.55;;;2.30;;
12112;SDS011;6120;52.250;8.478;2023-09-19T02:23:55;13.05;;;2.35;;
12112;SDS011;6120;52.250;8.478;2023-09-19T02:26:22;11.13;;;2.33;;
12112;SDS011;6120;52.250;8.478;2023-09-19T02:28:53;6.68;;;2.33;;
12112;SDS011;6120;52.250;8.478;2023-09-19T02:31:20;10.60;;;2.28;;
12112;SDS011;6120;52.250;8.478;2023-09-19T02:33:46;11.45;;;2.25;;
12112;SDS011;6120;52.250;8.478;2023-09-19T02:36:13;11.70;;;2.60;;
12112;SDS011;6120;52.250;8.478;2023-09-19T02:38:43;9.32;;;2.35;;
12112;SDS011;6120;52.250;8.478;2023-09-19T02:41:10;12.13;;;2.72;;
12112;SDS011;6120;52.250;8.478;2023-09-19T02:43:37;6.82;;;2.47;;
12112;SDS011;6120;52.250;8.478;2023-09-19T02:46:04;16.08;;;2.50;;
12112;SDS011;6120;52.250;8.478;2023-09-19T02:48:31;8.52;;;2.90;;
12112;SDS011;6120;52.250;8.478;2023-09-19T02:51:00;12.35;;;2.92;;
12112;SDS011;6120;52.250;8.478;2023-09-19T02:53:27;8.50;;;2.13;;
12112;SDS011;6120;52.250;8.478;2023-09-19T02:55:54;10.38;;;2.70;;
12112;SDS011;6120;52.250;8.478;2023-09-19T02:58:21;7.60;;;2.22;;
12112;SDS011;6120;52.250;8.478;2023-09-19T03:00:49;10.88;;;2.72;;
12112;SDS011;6120;52.250;8.478;2023-09-19T03:03:17;11.27;;;3.22;;
12112;SDS011;6120;52.250;8.478;2023-09-19T03:05:45;8.50;;;2.67;;
12112;SDS011;6120;52.250;8.478;2023-09-19T03:08:14;16.02;;;2.85;;
12112;SDS011;6120;52.250;8.478;2023-09-19T03:10:47;10.23;;;2.60;;
12112;SDS011;6120;52.250;8.478;2023-09-19T03:13:16;10.18;;;2.28;;
12112;SDS011;6120;52.250;8.478;2023-09-19T03:15:43;16.42;;;2.53;;
12112;SDS011;6120;52.250;8.478;2023-09-19T03:18:13;7.72;;;2.60;;
12112;SDS011;6120;52.250;8.478;2023-09-19T03:20:40;9.48;;;2.47;;
12112;SDS011;6120;52.250;8.478;2023-09-19T03:23:06;8.80;;;2.40;;
12112;SDS011;6120;52.250;8.478;2023-09-19T03:25:34;11.15;;;2.58;;
12112;SDS011;6120;52.250;8.478;2023-09-19T03:28:02;11.85;;;2.72;;
12112;SDS011;6120;52.250;8.478;2023-09-19T03:30:32;10.98;;;2.35;;
12112;SDS011;6120;52.250;8.478;2023-09-19T03:33:00;8.87;;;2.87;;
12112;SDS011;6120;52.250;8.478;2023-09-19T03:35:27;11.43;;;2.60;;
12112;SDS011;6120;52.250;8.478;2023-09-19T03:37:54;8.98;;;2.88;;
12112;SDS011;6120;52.250;8.478;2023-09-19T03:40:20;18.92;;;3.65;;
12112;SDS011;6120;52.250;8.478;2023-09-19T03:42:48;7.27;;;2.43;;
12112;SDS011;6120;52.250;8.478;2023-09-19T03:45:15;12.13;;;2.80;;
12112;SDS011;6120;52.250;8.478;2023-09-19T03:47:42;10.15;;;2.97;;
12112;SDS011;6120;52.250;8.478;2023-09-19T03:50:09;11.20;;;2.60;;
12112;SDS011;6120;52.250;8.478;2023-09-19T03:52:41;10.07;;;2.65;;
12112;SDS011;6120;52.250;8.478;2023-09-19T03:55:08;10.98;;;2.90;;
12112;SDS011;6120;52.250;8.478;2023-09-19T03:57:36;10.23;;;2.85;;
12112;SDS011;6120;52.250;8.478;2023-09-19T04:00:03;11.45;;;3.03;;
12112;SDS011;6120;52.250;8.478;2023-09-19T04:02:32;9.45;;;2.40;;
12112;SDS011;6120;52.250;8.478;2023-09-19T04:04:59;14.07;;;2.53;;
12112;SDS011;6120;52.250;8.478;2023-09-19T04:07:26;6.88;;;2.55;;
12112;SDS011;6120;52.250;8.478;2023-09-19T04:09:55;9.65;;;2.63;;
12112;SDS011;6120;52.250;8.478;2023-09-19T04:12:22;8.27;;;2.42;;
12112;SDS011;6120;52.250;8.478;2023-09-19T04:14:49;11.88;;;2.30;;
12112;SDS011;6120;52.250;8.478;2023-09-19T04:17:16;12.73;;;2.50;;
12112;SDS011;6120;52.250;8.478;2023-09-19T04:19:43;16.70;;;2.80;;
12112;SDS011;6120;52.250;8.478;2023-09-19T04:22:12;8.75;;;2.55;;
12112;SDS011;6120;52.250;8.478;2023-09-19T04:24:39;14.18;;;2.90;;
12112;SDS011;6120;52.250;8.478;2023-09-19T04:27:06;11.52;;;2.58;;
12112;SDS011;6120;52.250;8.478;2023-09-19T04:29:33;8.73;;;2.15;;
12112;SDS011;6120;52.250;8.478;2023-09-19T04:32:00;10.52;;;2.53;;
12112;SDS011;6120;52.250;8.478;2023-09-19T04:34:26;10.55;;;2.17;;
12112;SDS011;6120;52.250;8.478;2023-09-19T04:36:53;9.95;;;1.90;;
12112;SDS011;6120;52.250;8.478;2023-09-19T04:39:22;7.90;;;2.40;;
12112;SDS011;6120;52.250;8.478;2023-09-19T04:41:51;10.45;;;2.92;;
12112;SDS011;6120;52.250;8.478;2023-09-19T04:44:19;8.38;;;2.50;;
12112;SDS011;6120;52.250;8.478;2023-09-19T04:46:45;9.80;;;2.63;;
12112;SDS011;6120;52.250;8.478;2023-09-19T04:49:13;10.82;;;2.00;;
12112;SDS011;6120;52.250;8.478;2023-09-19T04:51:39;10.50;;;1.75;;
12112;SDS011;6120;52.250;8.478;2023-09-19T04:54:06;9.07;;;2.45;;
12112;SDS011;6120;52.250;8.478;2023-09-19T04:56:33;10.85;;;2.75;;
12112;SDS011;6120;52.250;8.478;2023-09-19T04:59:00;8.88;;;1.98;;
12112;SDS011;6120;52.250;8.478;2023-09-19T05:01:26;13.85;;;3.20;;
12112;SDS011;6120;52.250;8.478;2023-09-19T05:03:53;10.60;;;1.85;;
12112;SDS011;6120;52.250;8.478;2023-09-19T05:06:20;10.75;;;2.42;;
12112;SDS011;6120;52.250;8.478;2023-09-19T05:08:50;9.68;;;2.53;;
12112;SDS011;6120;52.250;8.478;2023-09-19T05:11:20;7.00;;;1.95;;
12112;SDS011;6120;52.250;8.478;2023-09-19T05:13:49;8.60;;;2.20;;
12112;SDS011;6120;52.250;8.478;2023-09-19T05:16:19;16.73;;;3.17;;
12112;SDS011;6120;52.250;8.478;2023-09-19T05:18:46;7.88;;;1.85;;
12112;SDS011;6120;52.250;8.478;2023-09-19T05:21:13;9.85;;;2.00;;
12112;SDS011;6120;52.250;8.478;2023-09-19T05:23:39;11.98;;;2.17;;
12112;SDS011;6120;52.250;8.478;2023-09-19T05:26:07;11.70;;;2.40;;
12112;SDS011;6120;52.250;8.478;2023-09-19T05:28:34;15.82;;;2.03;;
12112;SDS011;6120;52.250;8.478;2023-09-19T05:31:01;9.80;;;2.25;;
12112;SDS011;6120;52.250;8.478;2023-09-19T05:33:30;8.50;;;1.80;;
12112;SDS011;6120;52.250;8.478;2023-09-19T05:35:58;10.93;;;2.53;;
12112;SDS011;6120;52.250;8.478;2023-09-19T05:38:25;9.60;;;2.08;;
12112;SDS011;6120;52.250;8.478;2023-09-19T05:40:53;11.73;;;2.37;;
12112;SDS011;6120;52.250;8.478;2023-09-19T05:43:20;7.57;;;1.67;;
12112;SDS011;6120;52.250;8.478;2023-09-19T05:45:47;10.60;;;2.22;;
12112;SDS011;6120;52.250;8.478;2023-09-19T05:48:14;7.13;;;1.70;;
12112;SDS011;6120;52.250;8.478;2023-09-19T05:53:09;9.52;;;2.00;;
12112;SDS011;6120;52.250;8.478;2023-09-19T05:55:39;12.50;;;2.58;;
12112;SDS011;6120;52.250;8.478;2023-09-19T05:58:06;14.50;;;2.53;;
12112;SDS011;6120;52.250;8.478;2023-09-19T06:00:33;12.25;;;2.17;;
12112;SDS011;6120;52.250;8.478;2023-09-19T06:03:03;7.47;;;1.70;;
12112;SDS011;6120;52.250;8.478;2023-09-19T06:05:30;7.63;;;1.90;;
12112;SDS011;6120;52.250;8.478;2023-09-19T06:07:58;7.18;;;1.58;;
12112;SDS011;6120;52.250;8.478;2023-09-19T06:10:27;8.73;;;1.80;;
12112;SDS011;6120;52.250;8.478;2023-09-19T06:12:54;9.98;;;1.80;;
12112;SDS011;6120;52.250;8.478;2023-09-19T06:15:24;6.97;;;1.80;;
12112;SDS011;6120;52.250;8.478;2023-09-19T06:17:52;8.98;;;2.03;;
12112;SDS011;6120;52.250;8.478;2023-09-19T06:20:24;6.53;;;1.33;;
12112;SDS011;6120;52.250;8.478;2023-09-19T06:22:52;13.05;;;2.55;;
12112;SDS011;6120;52.250;8.478;2023-09-19T06:25:20;9.82;;;1.70;;
12112;SDS011;6120;52.250;8.478;2023-09-19T06:27:51;11.60;;;1.88;;
12112;SDS011;6120;52.250;8.478;2023-09-19T06:30:20;8.30;;;1.88;;
12112;SDS011;6120;52.250;8.478;2023-09-19T06:32:57;9.68;;;1.80;;
12112;SDS011;6120;52.250;8.478;2023-09-19T06:35:26;15.57;;;2.47;;
12112;SDS011;6120;52.250;8.478;2023-09-19T06:37:53;8.07;;;2.03;;
12112;SDS011;6120;52.250;8.478;2023-09-19T06:40:20;8.07;;;1.80;;
12112;SDS011;6120;52.250;8.478;2023-09-19T06:42:49;9.98;;;2.45;;
12112;SDS011;6120;52.250;8.478;2023-09-19T06:45:17;8.88;;;1.95;;
12112;SDS011;6120;52.250;8.478;2023-09-19T06:47:47;9.98;;;1.75;;
12112;SDS011;6120;52.250;8.478;2023-09-19T06:50:18;5.68;;;1.85;;
12112;SDS011;6120;52.250;8.478;2023-09-19T06:52:51;7.60;;;2.05;;
12112;SDS011;6120;52.250;8.478;2023-09-19T06:55:20;14.10;;;2.13;;
12112;SDS011;6120;52.250;8.478;2023-09-19T06:57:51;7.78;;;1.58;;
12112;SDS011;6120;52.250;8.478;2023-09-19T07:00:21;7.80;;;1.67;;
12112;SDS011;6120;52.250;8.478;2023-09-19T07:02:58;8.35;;;1.50;;
12112;SDS011;6120;52.250;8.478;2023-09-19T07:05:27;7.90;;;1.92;;
12112;SDS011;6120;52.250;8.478;2023-09-19T07:07:54;11.85;;;2.08;;
12112;SDS011;6120;52.250;8.478;2023-09-19T07:10:22;9.70;;;2.05;;
12112;SDS011;6120;52.250;8.478;2023-09-19T07:13:03;11.80;;;1.90;;
12112;SDS011;6120;52.250;8.478;2023-09-19T07:15:32;6.30;;;1.83;;
12112;SDS011;6120;52.250;8.478;2023-09-19T07:18:05;16.10;;;2.83;;
12112;SDS011;6120;52.250;8.478;2023-09-19T07:20:34;9.75;;;2.00;;
12112;SDS011;6120;52.250;8.478;2023-09-19T07:23:01;9.60;;;1.83;;
12112;SDS011;6120;52.250;8.478;2023-09-19T07:25:28;11.60;;;2.53;;
12112;SDS011;6120;52.250;8.478;2023-09-19T07:27:56;9.38;;;2.08;;
12112;SDS011;6120;52.250;8.478;2023-09-19T07:30:26;9.60;;;1.92;;
12112;SDS011;6120;52.250;8.478;2023-09-19T07:32:53;5.70;;;1.73;;
12112;SDS011;6120;52.250;8.478;2023-09-19T07:35:20;7.57;;;1.83;;
12112;SDS011;6120;52.250;8.478;2023-09-19T07:37:47;11.68;;;1.98;;
12112;SDS011;6120;52.250;8.478;2023-09-19T07:40:16;15.50;;;2.90;;
12112;SDS011;6120;52.250;8.478;2023-09-19T07:42:43;7.00;;;1.65;;
12112;SDS011;6120;52.250;8.478;2023-09-19T07:45:10;13.93;;;1.95;;
12112;SDS011;6120;52.250;8.478;2023-09-19T07:47:43;7.35;;;1.88;;
12112;SDS011;6120;52.250;8.478;2023-09-19T07:50:17;6.60;;;1.50;;
12112;SDS011;6120;52.250;8.478;2023-09-19T07:52:47;17.20;;;2.00;;
12112;SDS011;6120;52.250;8.478;2023-09-19T07:55:14;9.90;;;1.77;;
12112;SDS011;6120;52.250;8.478;2023-09-19T07:57:46;7.30;;;2.45;;
12112;SDS011;6120;52.250;8.478;2023-09-19T08:00:13;12.80;;;2.55;;
12112;SDS011;6120;52.250;8.478;2023-09-19T08:02:40;8.52;;;1.98;;
12112;SDS011;6120;52.250;8.478;2023-09-19T08:05:08;6.80;;;1.65;;
12112;SDS011;6120;52.250;8.478;2023-09-19T08:07:39;8.35;;;2.00;;
12112;SDS011;6120;52.250;8.478;2023-09-19T08:10:07;6.88;;;2.13;;
12112;SDS011;6120;52.250;8.478;2023-09-19T08:12:34;11.18;;;2.42;;
12112;SDS011;6120;52.250;8.478;2023-09-19T08:15:04;12.82;;;2.55;;
12112;SDS011;6120;52.250;8.478;2023-09-19T08:17:35;8.27;;;1.70;;
12112;SDS011;6120;52.250;8.478;2023-09-19T08:20:02;7.35;;;1.80;;
12112;SDS011;6120;52.250;8.478;2023-09-19T08:22:31;14.93;;;2.95;;
12112;SDS011;6120;52.250;8.478;2023-09-19T08:24:58;6.38;;;1.80;;
12112;SDS011;6120;52.250;8.478;2023-09-19T08:27:25;14.00;;;2.15;;
12112;SDS011;6120;52.250;8.478;2023-09-19T08:29:53;14.80;;;2.70;;
12112;SDS011;6120;52.250;8.478;2023-09-19T08:32:19;8.70;;;1.83;;
12112;SDS011;6120;52.250;8.478;2023-09-19T08:34:53;12.73;;;2.47;;
12112;SDS011;6120;52.250;8.478;2023-09-19T08:37:19;10.07;;;2.00;;
12112;SDS011;6120;52.250;8.478;2023-09-19T08:39:46;12.70;;;2.20;;
12112;SDS011;6120;52.250;8.478;2023-09-19T08:42:13;5.40;;;2.08;;
12112;SDS011;6120;52.250;8.478;2023-09-19T08:44:40;9.40;;;2.35;;
12112;SDS011;6120;52.250;8.478;2023-09-19T08:47:11;12.27;;;2.08;;
12112;SDS011;6120;52.250;8.478;2023-09-19T08:52:22;10.90;;;2.17;;
12112;SDS011;6120;52.250;8.478;2023-09-19T08:54:52;9.30;;;2.35;;
12112;SDS011;6120;52.250;8.478;2023-09-19T08:57:25;8.52;;;1.95;;
12112;SDS011;6120;52.250;8.478;2023-09-19T08:59:56;12.45;;;2.30;;
12112;SDS011;6120;52.250;8.478;2023-09-19T09:02:23;7.43;;;2.17;;
12112;SDS011;6120;52.250;8.478;2023-09-19T09:04:50;7.70;;;2.00;;
12112;SDS011;6120;52.250;8.478;2023-09-19T09:07:17;7.35;;;2.53;;
12112;SDS011;6120;52.250;8.478;2023-09-19T09:09:45;12.98;;;2.35;;
12112;SDS011;6120;52.250;8.478;2023-09-19T09:12:12;6.57;;;2.20;;
12112;SDS011;6120;52.250;8.478;2023-09-19T09:14:40;9.65;;;2.58;;
12112;SDS011;6120;52.250;8.478;2023-09-19T09:17:10;16.38;;;2.45;;
12112;SDS011;6120;52.250;8.478;2023-09-19T09:19:38;12.60;;;2.75;;
12112;SDS011;6120;52.250;8.478;2023-09-19T09:22:08;7.78;;;1.98;;
12112;SDS011;6120;52.250;8.478;2023-09-19T09:24:36;9.38;;;2.15;;
12112;SDS011;6120;52.250;8.478;2023-09-19T09:27:06;6.38;;;2.30;;
12112;SDS011;6120;52.250;8.478;2023-09-19T09:29:40;6.43;;;2.13;;
12112;SDS011;6120;52.250;8.478;2023-09-19T09:32:20;12.95;;;2.30;;
12112;SDS011;6120;52.250;8.478;2023-09-19T09:34:49;17.50;;;2.85;;
12112;SDS011;6120;52.250;8.478;2023-09-19T09:37:17;10.48;;;2.50;;
12112;SDS011;6120;52.250;8.478;2023-09-19T09:40:01;10.40;;;3.30;;
12112;SDS011;6120;52.250;8.478;2023-09-19T09:42:58;9.60;;;2.78;;
12112;SDS011;6120;52.250;8.478;2023-09-19T09:45:26;14.15;;;2.67;;
12112;SDS011;6120;52.250;8.478;2023-09-19T09:48:04;13.48;;;3.42;;
12112;SDS011;6120;52.250;8.478;2023-09-19T09:50:47;10.77;;;2.83;;
12112;SDS011;6120;52.250;8.478;2023-09-19T09:53:24;7.13;;;2.40;;
12112;SDS011;6120;52.250;8.478;2023-09-19T09:55:58;7.05;;;2.50;;
12112;SDS011;6120;52.250;8.478;2023-09-19T09:58:36;7.60;;;2.70;;
12112;SDS011;6120;52.250;8.478;2023-09-19T10:01:04;8.82;;;2.75;;
12112;SDS011;6120;52.250;8.478;2023-09-19T10:03:42;9.38;;;3.20;;
12112;SDS011;6120;52.250;8.478;2023-09-19T10:06:16;11.02;;;2.80;;
12112;SDS011;6120;52.250;8.478;2023-09-19T10:09:02;16.27;;;3.42;;
12112;SDS011;6120;52.250;8.478;2023-09-19T10:11:57;10.15;;;2.90;;
12112;SDS011;6120;52.250;8.478;2023-09-19T10:14:35;6.95;;;2.67;;
12112;SDS011;6120;52.250;8.478;2023-09-19T10:17:05;8.63;;;2.78;;
12112;SDS011;6120;52.250;8.478;2023-09-19T10:22:27;10.90;;;2.20;;
12112;SDS011;6120;52.250;8.478;2023-09-19T10:24:57;11.00;;;3.40;;
12112;SDS011;6120;52.250;8.478;2023-09-19T10:27:28;9.98;;;2.38;;
12112;SDS011;6120;52.250;8.478;2023-09-19T10:29:56;8.15;;;1.98;;
12112;SDS011;6120;52.250;8.478;2023-09-19T10:32:26;6.32;;;1.90;;
12112;SDS011;6120;52.250;8.478;2023-09-19T10:34:54;9.48;;;2.47;;
12112;SDS011;6120;52.250;8.478;2023-09-19T10:37:22;7.85;;;2.47;;
12112;SDS011;6120;52.250;8.478;2023-09-19T10:39:52;9.18;;;2.65;;
12112;SDS011;6120;52.250;8.478;2023-09-19T10:42:20;6.68;;;2.60;;
12112;SDS011;6120;52.250;8.478;2023-09-19T10:44:47;11.65;;;4.53;;
12112;SDS011;6120;52.250;8.478;2023-09-19T10:47:20;4.78;;;1.90;;
12112;SDS011;6120;52.250;8.478;2023-09-19T10:49:50;9.25;;;2.65;;
12112;SDS011;6120;52.250;8.478;2023-09-19T10:52:19;9.02;;;2.05;;
12112;SDS011;6120;52.250;8.478;2023-09-19T10:54:51;8.32;;;2.42;;
12112;SDS011;6120;52.250;8.478;2023-09-19T10:57:21;7.22;;;2.30;;
12112;SDS011;6120;52.250;8.478;2023-09-19T11:03:36;10.35;;;2.63;;
12112;SDS011;6120;52.250;8.478;2023-09-19T11:05:39;10.45;;;2.20;;
12112;SDS011;6120;52.250;8.478;2023-09-19T11:08:07;10.55;;;2.70;;
12112;SDS011;6120;52.250;8.478;2023-09-19T11:10:50;7.03;;;2.35;;
12112;SDS011;6120;52.250;8.478;2023-09-19T11:13:27;8.32;;;2.50;;
12112;SDS011;6120;52.250;8.478;2023-09-19T11:26:40;7.25;;;2.00;;
12112;SDS011;6120;52.250;8.478;2023-09-19T11:29:30;7.17;;;2.00;;
12112;SDS011;6120;52.250;8.478;2023-09-19T11:31:57;11.18;;;2.35;;
12112;SDS011;6120;52.250;8.478;2023-09-19T11:34:38;7.57;;;2.58;;
12112;SDS011;6120;52.250;8.478;2023-09-19T11:39:40;13.65;;;2.15;;
12112;SDS011;6120;52.250;8.478;2023-09-19T11:48:24;4.82;;;1.90;;
12112;SDS011;6120;52.250;8.478;2023-09-19T11:50:54;9.50;;;2.15;;
12112;SDS011;6120;52.250;8.478;2023-09-19T11:53:21;7.80;;;2.88;;
12112;SDS011;6120;52.250;8.478;2023-09-19T11:55:48;8.88;;;1.95;;
12112;SDS011;6120;52.250;8.478;2023-09-19T11:58:17;4.50;;;1.40;;
12112;SDS011;6120;52.250;8.478;2023-09-19T12:00:45;10.15;;;2.28;;
12112;SDS011;6120;52.250;8.478;2023-09-19T12:03:12;6.80;;;1.77;;
12112;SDS011;6120;52.250;8.478;2023-09-19T12:05:41;7.28;;;1.92;;
12112;SDS011;6120;52.250;8.478;2023-09-19T12:08:07;10.95;;;2.10;;
12112;SDS011;6120;52.250;8.478;2023-09-19T12:10:45;7.03;;;1.67;;
12112;SDS011;6120;52.250;8.478;2023-09-19T12:13:18;6.95;;;2.35;;
12112;SDS011;6120;52.250;8.478;2023-09-19T12:15:45;9.25;;;2.55;;
12112;SDS011;6120;52.250;8.478;2023-09-19T12:18:29;10.63;;;1.92;;
12112;SDS011;6120;52.250;8.478;2023-09-19T12:20:56;10.80;;;2.45;;
12112;SDS011;6120;52.250;8.478;2023-09-19T12:23:28;10.73;;;2.03;;
12112;SDS011;6120;52.250;8.478;2023-09-19T12:25:56;12.68;;;2.10;;
12112;SDS011;6120;52.250;8.478;2023-09-19T12:28:26;9.25;;;2.20;;
12112;SDS011;6120;52.250;8.478;2023-09-19T12:30:54;9.50;;;2.20;;
12112;SDS011;6120;52.250;8.478;2023-09-19T12:33:21;8.63;;;2.10;;
12112;SDS011;6120;52.250;8.478;2023-09-19T12:35:52;9.07;;;2.25;;
12112;SDS011;6120;52.250;8.478;2023-09-19T12:38:31;6.97;;;1.70;;
12112;SDS011;6120;52.250;8.478;2023-09-19T12:41:01;7.50;;;1.73;;
12112;SDS011;6120;52.250;8.478;2023-09-19T12:43:29;6.07;;;1.70;;
12112;SDS011;6120;52.250;8.478;2023-09-19T12:45:59;5.57;;;1.65;;
12112;SDS011;6120;52.250;8.478;2023-09-19T12:48:26;7.95;;;2.55;;
12112;SDS011;6120;52.250;8.478;2023-09-19T12:51:07;8.35;;;1.70;;
12112;SDS011;6120;52.250;8.478;2023-09-19T12:56:11;7.38;;;2.00;;
12112;SDS011;6120;52.250;8.478;2023-09-19T12:58:53;9.88;;;2.28;;
12112;SDS011;6120;52.250;8.478;2023-09-19T13:01:25;7.75;;;1.60;;
12112;SDS011;6120;52.250;8.478;2023-09-19T13:06:47;8.77;;;2.15;;
12112;SDS011;6120;52.250;8.478;2023-09-19T13:11:43;4.88;;;1.58;;
12112;SDS011;6120;52.250;8.478;2023-09-19T13:14:21;6.20;;;1.63;;
12112;SDS011;6120;52.250;8.478;2023-09-19T13:19:44;6.55;;;1.90;;
12112;SDS011;6120;52.250;8.478;2023-09-19T13:22:39;5.55;;;1.42;;
12112;SDS011;6120;52.250;8.478;2023-09-19T13:25:07;7.30;;;1.90;;
12112;SDS011;6120;52.250;8.478;2023-09-19T13:27:41;5.65;;;1.60;;
12112;SDS011;6120;52.250;8.478;2023-09-19T13:30:08;7.38;;;1.70;;
12112;SDS011;6120;52.250;8.478;2023-09-19T13:32:35;10.07;;;1.73;;
12112;SDS011;6120;52.250;8.478;2023-09-19T13:35:02;7.65;;;1.67;;
12112;SDS011;6120;52.250;8.478;2023-09-19T13:37:32;7.75;;;1.85;;
12112;SDS011;6120;52.250;8.478;2023-09-19T13:40:01;7.32;;;1.45;;
12112;SDS011;6120;52.250;8.478;2023-09-19T13:42:27;4.97;;;1.60;;
12112;SDS011;6120;52.250;8.478;2023-09-19T13:44:56;5.80;;;1.33;;
12112;SDS011;6120;52.250;8.478;2023-09-19T13:47:23;6.60;;;1.90;;
12112;SDS011;6120;52.250;8.478;2023-09-19T13:49:52;8.02;;;1.77;;
12112;SDS011;6120;52.250;8.478;2023-09-19T13:52:20;7.65;;;1.30;;
12112;SDS011;6120;52.250;8.478;2023-09-19T13:54:48;8.68;;;1.90;;
12112;SDS011;6120;52.250;8.478;2023-09-19T13:57:14;10.82;;;2.13;;
12112;SDS011;6120;52.250;8.478;2023-09-19T13:59:41;8.13;;;1.80;;
12112;SDS011;6120;52.250;8.478;2023-09-19T14:02:08;6.80;;;1.90;;
12112;SDS011;6120;52.250;8.478;2023-09-19T14:04:37;6.43;;;2.08;;
12112;SDS011;6120;52.250;8.478;2023-09-19T14:07:04;4.93;;;1.30;;
12112;SDS011;6120;52.250;8.478;2023-09-19T14:09:30;8.75;;;1.50;;
12112;SDS011;6120;52.250;8.478;2023-09-19T14:11:57;8.52;;;1.73;;
12112;SDS011;6120;52.250;8.478;2023-09-19T14:14:24;8.52;;;2.33;;
12112;SDS011;6120;52.250;8.478;2023-09-19T14:16:50;8.23;;;2.03;;
12112;SDS011;6120;52.250;8.478;2023-09-19T14:19:21;6.03;;;1.33;;
12112;SDS011;6120;52.250;8.478;2023-09-19T14:21:47;6.38;;;1.17;;
12112;SDS011;6120;52.250;8.478;2023-09-19T14:24:18;6.28;;;1.75;;
12112;SDS011;6120;52.250;8.478;2023-09-19T14:26:45;6.15;;;1.17;;
12112;SDS011;6120;52.250;8.478;2023-09-19T14:29:12;4.67;;;1.30;;
12112;SDS011;6120;52.250;8.478;2023-09-19T14:31:39;5.10;;;1.35;;
12112;SDS011;6120;52.250;8.478;2023-09-19T14:34:06;3.60;;;1.08;;
12112;SDS011;6120;52.250;8.478;2023-09-19T14:36:33;4.45;;;1.23;;
12112;SDS011;6120;52.250;8.478;2023-09-19T14:39:00;7.72;;;1.63;;
12112;SDS011;6120;52.250;8.478;2023-09-19T14:41:27;5.88;;;1.45;;
12112;SDS011;6120;52.250;8.478;2023-09-19T14:43:54;5.15;;;1.20;;
12112;SDS011;6120;52.250;8.478;2023-09-19T14:46:23;2.95;;;1.38;;
12112;SDS011;6120;52.250;8.478;2023-09-19T14:48:53;9.32;;;1.92;;
12112;SDS011;6120;52.250;8.478;2023-09-19T14:51:20;3.20;;;1.10;;
12112;SDS011;6120;52.250;8.478;2023-09-19T14:53:46;7.82;;;1.75;;
12112;SDS011;6120;52.250;8.478;2023-09-19T14:56:13;6.00;;;1.52;;
12112;SDS011;6120;52.250;8.478;2023-09-19T14:58:44;8.73;;;1.80;;
12112;SDS011;6120;52.250;8.478;2023-09-19T15:01:12;6.40;;;1.67;;
12112;SDS011;6120;52.250;8.478;2023-09-19T15:03:40;4.85;;;1.50;;
12112;SDS011;6120;52.250;8.478;2023-09-19T15:06:09;6.25;;;1.50;;
12112;SDS011;6120;52.250;8.478;2023-09-19T15:08:41;7.07;;;1.20;;
12112;SDS011;6120;52.250;8.478;2023-09-19T15:11:14;3.45;;;1.25;;
12112;SDS011;6120;52.250;8.478;2023-09-19T15:13:44;5.88;;;1.08;;
12112;SDS011;6120;52.250;8.478;2023-09-19T15:16:11;6.55;;;1.65;;
12112;SDS011;6120;52.250;8.478;2023-09-19T15:18:44;7.10;;;1.58;;
12112;SDS011;6120;52.250;8.478;2023-09-19T15:21:14;5.25;;;1.27;;
12112;SDS011;6120;52.250;8.478;2023-09-19T15:23:41;4.78;;;1.20;;
12112;SDS011;6120;52.250;8.478;2023-09-19T15:26:12;5.57;;;1.50;;
12112;SDS011;6120;52.250;8.478;2023-09-19T15:28:43;9.95;;;1.67;;
12112;SDS011;6120;52.250;8.478;2023-09-19T15:31:11;3.28;;;1.20;;
12112;SDS011;6120;52.250;8.478;2023-09-19T15:33:39;6.40;;;1.73;;
12112;SDS011;6120;52.250;8.478;2023-09-19T15:36:09;4.10;;;1.58;;
12112;SDS011;6120;52.250;8.478;2023-09-19T15:41:33;6.45;;;1.42;;
12112;SDS011;6120;52.250;8.478;2023-09-19T15:44:02;8.02;;;2.55;;
12112;SDS011;6120;52.250;8.478;2023-09-19T15:46:30;6.65;;;1.40;;
12112;SDS011;6120;52.250;8.478;2023-09-19T15:48:58;6.22;;;1.38;;
12112;SDS011;6120;52.250;8.478;2023-09-19T15:51:24;4.22;;;1.02;;
12112;SDS011;6120;52.250;8.478;2023-09-19T15:53:51;6.90;;;1.42;;
12112;SDS011;6120;52.250;8.478;2023-09-19T15:56:20;7.13;;;1.42;;
12112;SDS011;6120;52.250;8.478;2023-09-19T15:58:48;4.90;;;1.20;;
12112;SDS011;6120;52.250;8.478;2023-09-19T16:01:18;3.72;;;1.42;;
12112;SDS011;6120;52.250;8.478;2023-09-19T16:03:45;6.45;;;1.23;;